sensor_id;sensor_type;location;lat;lon;timestamp;P1;durP1;ratioP1;P2;durP2;ratioP2
17171;SDS011;8701;50.150;8.756;2024-02-26T00:02:52;1.70;;;1.60;;
17171;SDS011;8701;50.150;8.756;2024-02-26T00:06:54;2.17;;;1.87;;
17171;SDS011;8701;50.150;8.756;2024-02-26T00:10:56;3.10;;;1.77;;
17171;SDS011;8701;50.150;8.756;2024-02-26T00:14:59;2.40;;;2.17;;
17171;SDS011;8701;50.150;8.756;2024-02-26T00:19:03;2.83;;;2.20;;
17171;SDS011;8701;50.150;8.756;2024-02-26T00:23:05;2.10;;;2.00;;
17171;SDS011;8701;50.150;8.756;2024-02-26T00:27:07;2.27;;;1.90;;
17171;SDS011;8701;50.150;8.756;2024-02-26T00:31:10;2.07;;;1.97;;
17171;SDS011;8701;50.150;8.756;2024-02-26T00:35:13;5.27;;;2.03;;
17171;SDS011;8701;50.150;8.756;2024-02-26T00:39:16;1.60;;;1.50;;
17171;SDS011;8701;50.150;8.756;2024-02-26T00:43:19;1.93;;;1.83;;
17171;SDS011;8701;50.150;8.756;2024-02-26T00:47:21;1.70;;;1.40;;
17171;SDS011;8701;50.150;8.756;2024-02-26T00:51:25;1.67;;;1.57;;
17171;SDS011;8701;50.150;8.756;2024-02-26T00:55:27;2.70;;;1.50;;
17171;SDS011;8701;50.150;8.756;2024-02-26T00:59:30;1.60;;;1.50;;
17171;SDS011;8701;50.150;8.756;2024-02-26T01:03:33;1.50;;;1.40;;
17171;SDS011;8701;50.150;8.756;2024-02-26T01:07:36;1.43;;;1.27;;
17171;SDS011;8701;50.150;8.756;2024-02-26T01:11:40;2.57;;;1.67;;
17171;SDS011;8701;50.150;8.756;2024-02-26T01:15:43;1.30;;;1.20;;
17171;SDS011;8701;50.150;8.756;2024-02-26T01:19:45;1.50;;;1.40;;
17171;SDS011;8701;50.150;8.756;2024-02-26T01:23:49;2.03;;;1.70;;
17171;SDS011;8701;50.150;8.756;2024-02-26T01:27:51;1.80;;;1.57;;
17171;SDS011;8701;50.150;8.756;2024-02-26T01:31:56;6.00;;;1.50;;
17171;SDS011;8701;50.150;8.756;2024-02-26T01:35:58;2.40;;;1.93;;
17171;SDS011;8701;50.150;8.756;2024-02-26T01:40:03;1.50;;;1.40;;
17171;SDS011;8701;50.150;8.756;2024-02-26T01:44:07;2.23;;;1.63;;
17171;SDS011;8701;50.150;8.756;2024-02-26T01:48:12;1.60;;;1.50;;
17171;SDS011;8701;50.150;8.756;2024-02-26T01:52:14;1.53;;;1.43;;
17171;SDS011;8701;50.150;8.756;2024-02-26T01:56:18;2.20;;;1.70;;
17171;SDS011;8701;50.150;8.756;2024-02-26T02:00:23;1.80;;;1.70;;
17171;SDS011;8701;50.150;8.756;2024-02-26T02:04:26;1.63;;;1.50;;
17171;SDS011;8701;50.150;8.756;2024-02-26T02:08:29;3.23;;;1.80;;
17171;SDS011;8701;50.150;8.756;2024-02-26T02:12:33;1.73;;;1.63;;
17171;SDS011;8701;50.150;8.756;2024-02-26T02:16:36;1.87;;;1.33;;
17171;SDS011;8701;50.150;8.756;2024-02-26T02:20:50;1.30;;;1.30;;
17171;SDS011;8701;50.150;8.756;2024-02-26T02:24:52;1.50;;;1.40;;
17171;SDS011;8701;50.150;8.756;2024-02-26T02:28:54;1.90;;;1.80;;
17171;SDS011;8701;50.150;8.756;2024-02-26T02:33:01;1.80;;;1.70;;
17171;SDS011;8701;50.150;8.756;2024-02-26T02:37:06;2.00;;;1.63;;
17171;SDS011;8701;50.150;8.756;2024-02-26T02:41:09;1.97;;;1.77;;
17171;SDS011;8701;50.150;8.756;2024-02-26T02:45:11;2.00;;;1.80;;
17171;SDS011;8701;50.150;8.756;2024-02-26T02:49:14;2.70;;;1.70;;
17171;SDS011;8701;50.150;8.756;2024-02-26T02:53:18;2.23;;;2.03;;
17171;SDS011;8701;50.150;8.756;2024-02-26T02:57:21;2.20;;;1.47;;
17171;SDS011;8701;50.150;8.756;2024-02-26T03:01:23;1.60;;;1.50;;
17171;SDS011;8701;50.150;8.756;2024-02-26T03:05:27;1.77;;;1.67;;
17171;SDS011;8701;50.150;8.756;2024-02-26T03:09:31;1.87;;;1.77;;
17171;SDS011;8701;50.150;8.756;2024-02-26T03:13:33;1.60;;;1.50;;
17171;SDS011;8701;50.150;8.756;2024-02-26T03:17:37;1.47;;;1.33;;
17171;SDS011;8701;50.150;8.756;2024-02-26T03:21:39;1.53;;;1.43;;
17171;SDS011;8701;50.150;8.756;2024-02-26T03:25:44;1.60;;;1.50;;
17171;SDS011;8701;50.150;8.756;2024-02-26T03:29:48;1.80;;;1.70;;
17171;SDS011;8701;50.150;8.756;2024-02-26T03:33:50;2.13;;;1.90;;
17171;SDS011;8701;50.150;8.756;2024-02-26T03:37:53;1.73;;;1.63;;
17171;SDS011;8701;50.150;8.756;2024-02-26T03:41:56;1.47;;;1.37;;
17171;SDS011;8701;50.150;8.756;2024-02-26T03:45:59;2.83;;;1.60;;
17171;SDS011;8701;50.150;8.756;2024-02-26T03:50:01;1.20;;;1.20;;
17171;SDS011;8701;50.150;8.756;2024-02-26T03:54:05;1.50;;;1.40;;
17171;SDS011;8701;50.150;8.756;2024-02-26T03:58:09;1.67;;;1.57;;
17171;SDS011;8701;50.150;8.756;2024-02-26T04:02:13;2.20;;;2.00;;
17171;SDS011;8701;50.150;8.756;2024-02-26T04:06:16;2.00;;;1.80;;
17171;SDS011;8701;50.150;8.756;2024-02-26T04:10:21;1.63;;;1.53;;
17171;SDS011;8701;50.150;8.756;2024-02-26T04:14:25;2.13;;;1.70;;
17171;SDS011;8701;50.150;8.756;2024-02-26T04:18:28;1.77;;;1.67;;
17171;SDS011;8701;50.150;8.756;2024-02-26T04:22:30;1.97;;;1.83;;
17171;SDS011;8701;50.150;8.756;2024-02-26T04:26:32;3.20;;;1.87;;
17171;SDS011;8701;50.150;8.756;2024-02-26T04:30:36;1.70;;;1.60;;
17171;SDS011;8701;50.150;8.756;2024-02-26T04:34:39;1.90;;;1.80;;
17171;SDS011;8701;50.150;8.756;2024-02-26T04:38:42;1.90;;;1.80;;
17171;SDS011;8701;50.150;8.756;2024-02-26T04:42:45;2.03;;;1.87;;
17171;SDS011;8701;50.150;8.756;2024-02-26T04:46:49;2.10;;;1.90;;
17171;SDS011;8701;50.150;8.756;2024-02-26T04:50:51;3.50;;;2.30;;
17171;SDS011;8701;50.150;8.756;2024-02-26T04:54:54;4.17;;;1.93;;
17171;SDS011;8701;50.150;8.756;2024-02-26T04:58:56;1.90;;;1.80;;
17171;SDS011;8701;50.150;8.756;2024-02-26T05:03:00;1.83;;;1.73;;
17171;SDS011;8701;50.150;8.756;2024-02-26T05:07:02;1.87;;;1.77;;
17171;SDS011;8701;50.150;8.756;2024-02-26T05:11:05;1.90;;;1.80;;
17171;SDS011;8701;50.150;8.756;2024-02-26T05:15:08;2.30;;;1.97;;
17171;SDS011;8701;50.150;8.756;2024-02-26T05:19:12;2.67;;;2.03;;
17171;SDS011;8701;50.150;8.756;2024-02-26T05:23:14;3.00;;;1.90;;
17171;SDS011;8701;50.150;8.756;2024-02-26T05:27:17;2.47;;;2.10;;
17171;SDS011;8701;50.150;8.756;2024-02-26T05:31:19;2.80;;;2.10;;
17171;SDS011;8701;50.150;8.756;2024-02-26T05:35:23;2.07;;;1.93;;
17171;SDS011;8701;50.150;8.756;2024-02-26T05:39:26;2.97;;;2.27;;
17171;SDS011;8701;50.150;8.756;2024-02-26T05:43:28;2.27;;;2.07;;
17171;SDS011;8701;50.150;8.756;2024-02-26T05:47:32;5.43;;;2.20;;
17171;SDS011;8701;50.150;8.756;2024-02-26T05:51:35;2.37;;;2.17;;
17171;SDS011;8701;50.150;8.756;2024-02-26T05:55:38;2.27;;;2.17;;
17171;SDS011;8701;50.150;8.756;2024-02-26T05:59:41;2.47;;;2.30;;
17171;SDS011;8701;50.150;8.756;2024-02-26T06:03:43;5.57;;;2.43;;
17171;SDS011;8701;50.150;8.756;2024-02-26T06:07:47;3.07;;;2.77;;
17171;SDS011;8701;50.150;8.756;2024-02-26T06:11:49;3.10;;;2.80;;
17171;SDS011;8701;50.150;8.756;2024-02-26T06:15:51;3.67;;;2.40;;
17171;SDS011;8701;50.150;8.756;2024-02-26T06:19:54;3.90;;;2.03;;
17171;SDS011;8701;50.150;8.756;2024-02-26T06:23:58;4.20;;;2.80;;
17171;SDS011;8701;50.150;8.756;2024-02-26T06:28:00;4.13;;;2.60;;
17171;SDS011;8701;50.150;8.756;2024-02-26T06:32:03;3.00;;;2.70;;
17171;SDS011;8701;50.150;8.756;2024-02-26T06:36:06;3.67;;;2.47;;
17171;SDS011;8701;50.150;8.756;2024-02-26T06:40:10;2.80;;;2.50;;
17171;SDS011;8701;50.150;8.756;2024-02-26T06:44:12;3.20;;;2.10;;
17171;SDS011;8701;50.150;8.756;2024-02-26T06:48:15;2.30;;;2.10;;
17171;SDS011;8701;50.150;8.756;2024-02-26T06:52:17;2.43;;;2.20;;
17171;SDS011;8701;50.150;8.756;2024-02-26T06:56:22;2.70;;;2.10;;
17171;SDS011;8701;50.150;8.756;2024-02-26T07:00:30;2.37;;;2.17;;
17171;SDS011;8701;50.150;8.756;2024-02-26T07:04:32;2.73;;;2.10;;
17171;SDS011;8701;50.150;8.756;2024-02-26T07:08:35;2.90;;;2.30;;
17171;SDS011;8701;50.150;8.756;2024-02-26T07:12:38;3.43;;;2.20;;
17171;SDS011;8701;50.150;8.756;2024-02-26T07:16:41;2.47;;;2.27;;
17171;SDS011;8701;50.150;8.756;2024-02-26T07:20:43;2.43;;;2.17;;
17171;SDS011;8701;50.150;8.756;2024-02-26T07:24:45;5.80;;;2.27;;
17171;SDS011;8701;50.150;8.756;2024-02-26T07:28:49;2.57;;;2.10;;
17171;SDS011;8701;50.150;8.756;2024-02-26T07:32:51;3.13;;;2.53;;
17171;SDS011;8701;50.150;8.756;2024-02-26T07:36:57;5.13;;;2.70;;
17171;SDS011;8701;50.150;8.756;2024-02-26T07:41:01;4.60;;;3.07;;
17171;SDS011;8701;50.150;8.756;2024-02-26T07:45:05;3.60;;;3.03;;
17171;SDS011;8701;50.150;8.756;2024-02-26T07:49:08;4.10;;;3.07;;
17171;SDS011;8701;50.150;8.756;2024-02-26T07:53:10;3.63;;;2.60;;
17171;SDS011;8701;50.150;8.756;2024-02-26T07:57:12;4.57;;;3.30;;
17171;SDS011;8701;50.150;8.756;2024-02-26T08:01:19;3.43;;;2.80;;
17171;SDS011;8701;50.150;8.756;2024-02-26T08:05:22;5.27;;;3.47;;
17171;SDS011;8701;50.150;8.756;2024-02-26T08:09:25;5.43;;;3.40;;
17171;SDS011;8701;50.150;8.756;2024-02-26T08:13:28;3.47;;;3.03;;
17171;SDS011;8701;50.150;8.756;2024-02-26T08:17:31;4.03;;;3.27;;
17171;SDS011;8701;50.150;8.756;2024-02-26T08:21:34;4.30;;;3.43;;
17171;SDS011;8701;50.150;8.756;2024-02-26T08:25:40;4.70;;;3.30;;
17171;SDS011;8701;50.150;8.756;2024-02-26T08:29:42;5.97;;;3.33;;
17171;SDS011;8701;50.150;8.756;2024-02-26T08:33:46;5.57;;;3.73;;
17171;SDS011;8701;50.150;8.756;2024-02-26T08:37:48;4.50;;;3.67;;
17171;SDS011;8701;50.150;8.756;2024-02-26T08:41:51;6.70;;;3.70;;
17171;SDS011;8701;50.150;8.756;2024-02-26T08:45:53;6.90;;;4.13;;
17171;SDS011;8701;50.150;8.756;2024-02-26T08:49:59;5.30;;;3.90;;
17171;SDS011;8701;50.150;8.756;2024-02-26T08:54:01;4.37;;;3.53;;
17171;SDS011;8701;50.150;8.756;2024-02-26T08:58:04;4.17;;;3.13;;
17171;SDS011;8701;50.150;8.756;2024-02-26T09:02:07;3.60;;;2.93;;
17171;SDS011;8701;50.150;8.756;2024-02-26T09:06:11;5.37;;;3.60;;
17171;SDS011;8701;50.150;8.756;2024-02-26T09:10:16;5.73;;;3.70;;
17171;SDS011;8701;50.150;8.756;2024-02-26T09:14:19;6.20;;;3.50;;
17171;SDS011;8701;50.150;8.756;2024-02-26T09:18:21;5.50;;;3.67;;
17171;SDS011;8701;50.150;8.756;2024-02-26T09:22:26;5.63;;;3.47;;
17171;SDS011;8701;50.150;8.756;2024-02-26T09:26:28;5.90;;;4.30;;
17171;SDS011;8701;50.150;8.756;2024-02-26T09:30:30;5.03;;;3.90;;
17171;SDS011;8701;50.150;8.756;2024-02-26T09:34:32;3.57;;;2.90;;
17171;SDS011;8701;50.150;8.756;2024-02-26T09:38:36;5.00;;;3.30;;
17171;SDS011;8701;50.150;8.756;2024-02-26T09:42:42;4.40;;;3.63;;
17171;SDS011;8701;50.150;8.756;2024-02-26T09:46:45;4.73;;;3.67;;
17171;SDS011;8701;50.150;8.756;2024-02-26T09:50:50;4.20;;;3.20;;
17171;SDS011;8701;50.150;8.756;2024-02-26T09:54:55;5.77;;;3.57;;
17171;SDS011;8701;50.150;8.756;2024-02-26T09:58:57;4.03;;;3.20;;
17171;SDS011;8701;50.150;8.756;2024-02-26T10:03:01;4.33;;;3.27;;
17171;SDS011;8701;50.150;8.756;2024-02-26T10:07:05;6.37;;;3.60;;
17171;SDS011;8701;50.150;8.756;2024-02-26T10:11:13;3.93;;;3.43;;
17171;SDS011;8701;50.150;8.756;2024-02-26T10:15:17;5.93;;;3.80;;
17171;SDS011;8701;50.150;8.756;2024-02-26T10:19:26;5.10;;;2.90;;
17171;SDS011;8701;50.150;8.756;2024-02-26T10:23:29;3.80;;;3.17;;
17171;SDS011;8701;50.150;8.756;2024-02-26T10:27:33;4.70;;;3.47;;
17171;SDS011;8701;50.150;8.756;2024-02-26T10:31:35;6.77;;;3.57;;
17171;SDS011;8701;50.150;8.756;2024-02-26T10:35:38;4.17;;;3.33;;
17171;SDS011;8701;50.150;8.756;2024-02-26T10:39:44;4.40;;;3.50;;
17171;SDS011;8701;50.150;8.756;2024-02-26T10:43:49;4.43;;;3.70;;
17171;SDS011;8701;50.150;8.756;2024-02-26T10:47:52;5.70;;;3.47;;
17171;SDS011;8701;50.150;8.756;2024-02-26T10:51:55;2.60;;;2.30;;
17171;SDS011;8701;50.150;8.756;2024-02-26T10:55:58;4.77;;;3.27;;
17171;SDS011;8701;50.150;8.756;2024-02-26T11:00:07;5.20;;;3.20;;
17171;SDS011;8701;50.150;8.756;2024-02-26T11:04:13;4.50;;;3.00;;
17171;SDS011;8701;50.150;8.756;2024-02-26T11:08:18;4.13;;;2.60;;
17171;SDS011;8701;50.150;8.756;2024-02-26T11:12:22;3.73;;;3.10;;
17171;SDS011;8701;50.150;8.756;2024-02-26T11:16:27;4.00;;;3.07;;
17171;SDS011;8701;50.150;8.756;2024-02-26T11:20:30;3.37;;;2.90;;
17171;SDS011;8701;50.150;8.756;2024-02-26T11:24:33;4.30;;;2.50;;
17171;SDS011;8701;50.150;8.756;2024-02-26T11:28:41;6.13;;;3.10;;
17171;SDS011;8701;50.150;8.756;2024-02-26T11:32:47;4.60;;;3.07;;
17171;SDS011;8701;50.150;8.756;2024-02-26T11:36:51;2.83;;;2.60;;
17171;SDS011;8701;50.150;8.756;2024-02-26T11:40:54;2.83;;;2.57;;
17171;SDS011;8701;50.150;8.756;2024-02-26T11:44:56;4.40;;;2.73;;
17171;SDS011;8701;50.150;8.756;2024-02-26T11:49:02;3.50;;;2.60;;
17171;SDS011;8701;50.150;8.756;2024-02-26T11:57:37;5.80;;;3.30;;
17171;SDS011;8701;50.150;8.756;2024-02-26T12:01:45;2.63;;;2.43;;
17171;SDS011;8701;50.150;8.756;2024-02-26T12:05:51;4.30;;;3.43;;
17171;SDS011;8701;50.150;8.756;2024-02-26T12:09:56;6.93;;;3.10;;
17171;SDS011;8701;50.150;8.756;2024-02-26T12:14:16;4.10;;;3.07;;
17171;SDS011;8701;50.150;8.756;2024-02-26T12:18:20;5.90;;;3.63;;
17171;SDS011;8701;50.150;8.756;2024-02-26T12:22:24;4.63;;;2.83;;
17171;SDS011;8701;50.150;8.756;2024-02-26T12:26:27;3.90;;;2.93;;
17171;SDS011;8701;50.150;8.756;2024-02-26T12:30:29;5.57;;;3.60;;
17171;SDS011;8701;50.150;8.756;2024-02-26T12:34:35;4.40;;;3.20;;
17171;SDS011;8701;50.150;8.756;2024-02-26T12:38:38;5.50;;;3.13;;
17171;SDS011;8701;50.150;8.756;2024-02-26T12:42:41;5.83;;;3.40;;
17171;SDS011;8701;50.150;8.756;2024-02-26T12:46:44;4.60;;;3.13;;
17171;SDS011;8701;50.150;8.756;2024-02-26T12:50:46;5.60;;;3.40;;
17171;SDS011;8701;50.150;8.756;2024-02-26T12:54:49;4.37;;;3.23;;
17171;SDS011;8701;50.150;8.756;2024-02-26T12:58:52;6.17;;;3.50;;
17171;SDS011;8701;50.150;8.756;2024-02-26T13:02:55;4.07;;;2.60;;
17171;SDS011;8701;50.150;8.756;2024-02-26T13:06:58;3.20;;;2.90;;
17171;SDS011;8701;50.150;8.756;2024-02-26T13:11:06;3.57;;;2.97;;
17171;SDS011;8701;50.150;8.756;2024-02-26T13:15:09;4.40;;;3.00;;
17171;SDS011;8701;50.150;8.756;2024-02-26T13:19:16;3.13;;;2.50;;
17171;SDS011;8701;50.150;8.756;2024-02-26T13:23:18;4.03;;;3.00;;
17171;SDS011;8701;50.150;8.756;2024-02-26T13:27:23;4.30;;;3.20;;
17171;SDS011;8701;50.150;8.756;2024-02-26T13:31:26;3.20;;;2.60;;
17171;SDS011;8701;50.150;8.756;2024-02-26T13:35:28;4.33;;;2.80;;
17171;SDS011;8701;50.150;8.756;2024-02-26T13:39:32;2.80;;;2.37;;
17171;SDS011;8701;50.150;8.756;2024-02-26T13:43:35;3.13;;;2.83;;
17171;SDS011;8701;50.150;8.756;2024-02-26T13:47:37;3.20;;;2.70;;
17171;SDS011;8701;50.150;8.756;2024-02-26T13:51:41;2.70;;;2.30;;
17171;SDS011;8701;50.150;8.756;2024-02-26T13:55:43;3.30;;;2.60;;
17171;SDS011;8701;50.150;8.756;2024-02-26T13:59:47;2.73;;;2.47;;
17171;SDS011;8701;50.150;8.756;2024-02-26T14:03:50;4.73;;;3.20;;
17171;SDS011;8701;50.150;8.756;2024-02-26T14:07:55;5.10;;;3.23;;
17171;SDS011;8701;50.150;8.756;2024-02-26T14:11:57;3.73;;;3.00;;
17171;SDS011;8701;50.150;8.756;2024-02-26T14:16:01;4.80;;;3.10;;
17171;SDS011;8701;50.150;8.756;2024-02-26T14:20:04;5.60;;;3.10;;
17171;SDS011;8701;50.150;8.756;2024-02-26T14:24:09;4.87;;;3.33;;
17171;SDS011;8701;50.150;8.756;2024-02-26T14:28:11;2.93;;;2.63;;
17171;SDS011;8701;50.150;8.756;2024-02-26T14:32:15;3.03;;;2.73;;
17171;SDS011;8701;50.150;8.756;2024-02-26T14:36:18;4.87;;;2.70;;
17171;SDS011;8701;50.150;8.756;2024-02-26T14:40:21;3.10;;;2.60;;
17171;SDS011;8701;50.150;8.756;2024-02-26T14:44:23;4.30;;;2.50;;
17171;SDS011;8701;50.150;8.756;2024-02-26T14:48:27;3.10;;;2.80;;
17171;SDS011;8701;50.150;8.756;2024-02-26T14:52:30;2.33;;;2.13;;
17171;SDS011;8701;50.150;8.756;2024-02-26T14:56:33;5.10;;;3.03;;
17171;SDS011;8701;50.150;8.756;2024-02-26T15:00:35;3.40;;;2.53;;
17171;SDS011;8701;50.150;8.756;2024-02-26T15:04:39;3.60;;;2.60;;
17171;SDS011;8701;50.150;8.756;2024-02-26T15:08:41;3.53;;;2.90;;
17171;SDS011;8701;50.150;8.756;2024-02-26T15:12:43;6.90;;;2.30;;
17171;SDS011;8701;50.150;8.756;2024-02-26T15:16:45;12.10;;;2.50;;
17171;SDS011;8701;50.150;8.756;2024-02-26T15:20:49;6.30;;;2.47;;
17171;SDS011;8701;50.150;8.756;2024-02-26T15:24:52;3.27;;;2.60;;
17171;SDS011;8701;50.150;8.756;2024-02-26T15:28:55;2.73;;;2.40;;
17171;SDS011;8701;50.150;8.756;2024-02-26T15:32:57;2.97;;;2.33;;
17171;SDS011;8701;50.150;8.756;2024-02-26T15:37:01;2.87;;;2.27;;
17171;SDS011;8701;50.150;8.756;2024-02-26T15:41:10;2.70;;;2.40;;
17171;SDS011;8701;50.150;8.756;2024-02-26T15:45:12;3.27;;;2.63;;
17171;SDS011;8701;50.150;8.756;2024-02-26T15:49:16;4.30;;;2.70;;
17171;SDS011;8701;50.150;8.756;2024-02-26T15:53:20;4.30;;;2.30;;
17171;SDS011;8701;50.150;8.756;2024-02-26T15:57:22;2.93;;;2.63;;
17171;SDS011;8701;50.150;8.756;2024-02-26T16:01:24;4.43;;;2.67;;
17171;SDS011;8701;50.150;8.756;2024-02-26T16:05:27;2.73;;;2.53;;
17171;SDS011;8701;50.150;8.756;2024-02-26T16:09:30;3.87;;;2.53;;
17171;SDS011;8701;50.150;8.756;2024-02-26T16:13:32;3.30;;;2.40;;
17171;SDS011;8701;50.150;8.756;2024-02-26T16:17:37;6.00;;;2.77;;
17171;SDS011;8701;50.150;8.756;2024-02-26T16:21:47;2.83;;;2.40;;
17171;SDS011;8701;50.150;8.756;2024-02-26T16:25:50;2.70;;;2.07;;
17171;SDS011;8701;50.150;8.756;2024-02-26T16:29:54;5.27;;;2.70;;
17171;SDS011;8701;50.150;8.756;2024-02-26T16:33:57;6.27;;;2.80;;
17171;SDS011;8701;50.150;8.756;2024-02-26T16:37:59;3.03;;;2.60;;
17171;SDS011;8701;50.150;8.756;2024-02-26T16:42:03;3.30;;;2.80;;
17171;SDS011;8701;50.150;8.756;2024-02-26T16:46:05;2.77;;;2.47;;
17171;SDS011;8701;50.150;8.756;2024-02-26T16:50:08;3.83;;;2.93;;
17171;SDS011;8701;50.150;8.756;2024-02-26T16:54:11;3.53;;;2.60;;
17171;SDS011;8701;50.150;8.756;2024-02-26T16:58:15;6.00;;;2.60;;
17171;SDS011;8701;50.150;8.756;2024-02-26T17:02:17;3.00;;;2.53;;
17171;SDS011;8701;50.150;8.756;2024-02-26T17:06:19;2.90;;;2.60;;
17171;SDS011;8701;50.150;8.756;2024-02-26T17:10:24;3.07;;;2.67;;
17171;SDS011;8701;50.150;8.756;2024-02-26T17:14:27;4.40;;;2.80;;
17171;SDS011;8701;50.150;8.756;2024-02-26T17:18:32;3.00;;;2.67;;
17171;SDS011;8701;50.150;8.756;2024-02-26T17:22:34;7.30;;;3.00;;
17171;SDS011;8701;50.150;8.756;2024-02-26T17:26:37;7.70;;;2.83;;
17171;SDS011;8701;50.150;8.756;2024-02-26T17:30:41;5.97;;;2.93;;
17171;SDS011;8701;50.150;8.756;2024-02-26T17:34:43;4.10;;;3.13;;
17171;SDS011;8701;50.150;8.756;2024-02-26T17:38:48;3.73;;;3.10;;
17171;SDS011;8701;50.150;8.756;2024-02-26T17:42:52;2.23;;;1.80;;
17171;SDS011;8701;50.150;8.756;2024-02-26T17:46:56;2.70;;;2.40;;
17171;SDS011;8701;50.150;8.756;2024-02-26T17:50:58;4.47;;;3.10;;
17171;SDS011;8701;50.150;8.756;2024-02-26T17:55:00;4.43;;;3.27;;
17171;SDS011;8701;50.150;8.756;2024-02-26T17:59:04;3.33;;;2.50;;
17171;SDS011;8701;50.150;8.756;2024-02-26T18:03:08;2.87;;;2.60;;
17171;SDS011;8701;50.150;8.756;2024-02-26T18:07:10;3.80;;;3.20;;
17171;SDS011;8701;50.150;8.756;2024-02-26T18:11:13;10.20;;;5.07;;
17171;SDS011;8701;50.150;8.756;2024-02-26T18:15:15;4.70;;;3.60;;
17171;SDS011;8701;50.150;8.756;2024-02-26T18:19:20;3.77;;;2.77;;
17171;SDS011;8701;50.150;8.756;2024-02-26T18:23:22;3.00;;;2.80;;
17171;SDS011;8701;50.150;8.756;2024-02-26T18:27:24;3.17;;;2.87;;
17171;SDS011;8701;50.150;8.756;2024-02-26T18:31:27;3.10;;;2.80;;
17171;SDS011;8701;50.150;8.756;2024-02-26T18:35:31;3.30;;;3.00;;
17171;SDS011;8701;50.150;8.756;2024-02-26T18:39:33;3.23;;;2.93;;
17171;SDS011;8701;50.150;8.756;2024-02-26T18:43:36;4.60;;;3.00;;
17171;SDS011;8701;50.150;8.756;2024-02-26T18:47:38;6.13;;;3.07;;
17171;SDS011;8701;50.150;8.756;2024-02-26T18:51:42;2.83;;;2.63;;
17171;SDS011;8701;50.150;8.756;2024-02-26T18:55:44;2.87;;;2.57;;
17171;SDS011;8701;50.150;8.756;2024-02-26T18:59:47;6.23;;;3.60;;
17171;SDS011;8701;50.150;8.756;2024-02-26T19:03:50;5.00;;;3.17;;
17171;SDS011;8701;50.150;8.756;2024-02-26T19:07:53;4.77;;;3.30;;
17171;SDS011;8701;50.150;8.756;2024-02-26T19:11:59;3.87;;;3.37;;
17171;SDS011;8701;50.150;8.756;2024-02-26T19:16:01;4.43;;;3.20;;
17171;SDS011;8701;50.150;8.756;2024-02-26T19:20:04;4.27;;;3.87;;
17171;SDS011;8701;50.150;8.756;2024-02-26T19:24:08;6.53;;;3.97;;
17171;SDS011;8701;50.150;8.756;2024-02-26T19:28:11;5.70;;;4.20;;
17171;SDS011;8701;50.150;8.756;2024-02-26T19:32:15;6.40;;;5.03;;
17171;SDS011;8701;50.150;8.756;2024-02-26T19:36:17;6.70;;;4.83;;
17171;SDS011;8701;50.150;8.756;2024-02-26T19:40:21;9.43;;;6.00;;
17171;SDS011;8701;50.150;8.756;2024-02-26T19:44:23;9.90;;;5.37;;
17171;SDS011;8701;50.150;8.756;2024-02-26T19:48:25;8.93;;;6.37;;
17171;SDS011;8701;50.150;8.756;2024-02-26T19:52:28;8.70;;;5.83;;
17171;SDS011;8701;50.150;8.756;2024-02-26T19:56:32;8.67;;;6.10;;
17171;SDS011;8701;50.150;8.756;2024-02-26T20:00:35;8.43;;;6.27;;
17171;SDS011;8701;50.150;8.756;2024-02-26T20:04:37;7.73;;;4.83;;
17171;SDS011;8701;50.150;8.756;2024-02-26T20:08:40;11.80;;;6.97;;
17171;SDS011;8701;50.150;8.756;2024-02-26T20:12:43;8.30;;;6.13;;
17171;SDS011;8701;50.150;8.756;2024-02-26T20:16:46;10.00;;;7.20;;
17171;SDS011;8701;50.150;8.756;2024-02-26T20:20:50;11.33;;;6.60;;
17171;SDS011;8701;50.150;8.756;2024-02-26T20:24:52;9.13;;;6.60;;
17171;SDS011;8701;50.150;8.756;2024-02-26T20:28:57;16.47;;;8.30;;
17171;SDS011;8701;50.150;8.756;2024-02-26T20:33:00;9.43;;;6.40;;
17171;SDS011;8701;50.150;8.756;2024-02-26T20:37:02;11.40;;;7.27;;
17171;SDS011;8701;50.150;8.756;2024-02-26T20:41:05;11.77;;;7.67;;
17171;SDS011;8701;50.150;8.756;2024-02-26T20:45:09;14.57;;;8.87;;
17171;SDS011;8701;50.150;8.756;2024-02-26T20:49:13;11.40;;;8.43;;
17171;SDS011;8701;50.150;8.756;2024-02-26T20:53:16;13.80;;;7.57;;
17171;SDS011;8701;50.150;8.756;2024-02-26T20:57:18;15.63;;;9.17;;
17171;SDS011;8701;50.150;8.756;2024-02-26T21:01:22;14.87;;;8.97;;
17171;SDS011;8701;50.150;8.756;2024-02-26T21:05:24;11.70;;;8.50;;
17171;SDS011;8701;50.150;8.756;2024-02-26T21:09:26;13.43;;;9.40;;
17171;SDS011;8701;50.150;8.756;2024-02-26T21:13:29;13.50;;;8.53;;
17171;SDS011;8701;50.150;8.756;2024-02-26T21:17:33;12.77;;;8.87;;
17171;SDS011;8701;50.150;8.756;2024-02-26T21:21:35;9.37;;;7.30;;
17171;SDS011;8701;50.150;8.756;2024-02-26T21:25:39;11.70;;;8.27;;
17171;SDS011;8701;50.150;8.756;2024-02-26T21:29:42;14.50;;;10.07;;
17171;SDS011;8701;50.150;8.756;2024-02-26T21:33:46;13.70;;;8.70;;
17171;SDS011;8701;50.150;8.756;2024-02-26T21:37:50;13.70;;;8.80;;
17171;SDS011;8701;50.150;8.756;2024-02-26T21:41:52;10.87;;;8.57;;
17171;SDS011;8701;50.150;8.756;2024-02-26T21:45:54;14.50;;;9.53;;
17171;SDS011;8701;50.150;8.756;2024-02-26T21:49:58;13.00;;;8.83;;
17171;SDS011;8701;50.150;8.756;2024-02-26T21:54:01;15.37;;;10.03;;
17171;SDS011;8701;50.150;8.756;2024-02-26T21:58:03;14.50;;;10.80;;
17171;SDS011;8701;50.150;8.756;2024-02-26T22:02:06;17.83;;;11.33;;
17171;SDS011;8701;50.150;8.756;2024-02-26T22:06:09;16.00;;;10.50;;
17171;SDS011;8701;50.150;8.756;2024-02-26T22:10:11;15.60;;;9.30;;
17171;SDS011;8701;50.150;8.756;2024-02-26T22:14:14;18.60;;;12.40;;
17171;SDS011;8701;50.150;8.756;2024-02-26T22:18:16;18.63;;;11.87;;
17171;SDS011;8701;50.150;8.756;2024-02-26T22:22:20;17.20;;;11.20;;
17171;SDS011;8701;50.150;8.756;2024-02-26T22:26:24;13.47;;;9.63;;
17171;SDS011;8701;50.150;8.756;2024-02-26T22:30:26;17.50;;;12.60;;
17171;SDS011;8701;50.150;8.756;2024-02-26T22:34:29;19.83;;;12.50;;
17171;SDS011;8701;50.150;8.756;2024-02-26T22:38:32;20.30;;;11.70;;
17171;SDS011;8701;50.150;8.756;2024-02-26T22:42:35;21.17;;;12.90;;
17171;SDS011;8701;50.150;8.756;2024-02-26T22:46:38;21.23;;;13.97;;
17171;SDS011;8701;50.150;8.756;2024-02-26T22:50:41;16.27;;;12.53;;
17171;SDS011;8701;50.150;8.756;2024-02-26T22:54:45;20.67;;;13.43;;
17171;SDS011;8701;50.150;8.756;2024-02-26T22:58:47;20.90;;;13.27;;
17171;SDS011;8701;50.150;8.756;2024-02-26T23:02:50;19.10;;;12.77;;
17171;SDS011;8701;50.150;8.756;2024-02-26T23:06:52;18.90;;;12.73;;
17171;SDS011;8701;50.150;8.756;2024-02-26T23:10:56;17.40;;;12.37;;
17171;SDS011;8701;50.150;8.756;2024-02-26T23:14:58;23.07;;;15.77;;
17171;SDS011;8701;50.150;8.756;2024-02-26T23:19:02;19.63;;;12.90;;
17171;SDS011;8701;50.150;8.756;2024-02-26T23:23:08;20.47;;;14.27;;
17171;SDS011;8701;50.150;8.756;2024-02-26T23:27:11;18.40;;;12.20;;
17171;SDS011;8701;50.150;8.756;2024-02-26T23:31:13;29.17;;;16.43;;
17171;SDS011;8701;50.150;8.756;2024-02-26T23:35:16;21.33;;;14.60;;
17171;SDS011;8701;50.150;8.756;2024-02-26T23:39:18;23.33;;;15.63;;
17171;SDS011;8701;50.150;8.756;2024-02-26T23:43:22;19.57;;;12.53;;
17171;SDS011;8701;50.150;8.756;2024-02-26T23:47:25;18.20;;;13.43;;
17171;SDS011;8701;50.150;8.756;2024-02-26T23:51:27;22.63;;;14.70;;
17171;SDS011;8701;50.150;8.756;2024-02-26T23:55:30;22.17;;;15.17;;
17171;SDS011;8701;50.150;8.756;2024-02-26T23:59:33;24.80;;;14.20;;
